Time;durP1;ratioP1;P1;durP2;ratioP2;P2;SDS_P1;SDS_P2;PMS_P1;PMS_P2;Temp;Humidity;BMP_temperature;BMP_pressure;BME280_temperature;BME280_humidity;BME280_pressure;Samples;Min_cycle;Max_cycle;Signal;HPM_P1;HPM_P2
2022/12/12 00:00:23;;;;;;;;;36.00;23.00;;;;;;;;5060335;28;61830;-81
2022/12/12 00:02:48;;;;;;;;;41.33;34.33;;;;;;;;5060122;28;61941;-81
2022/12/12 00:05:14;;;;;;;;;43.33;31.67;;;;;;;;5061684;28;61658;-81
2022/12/12 00:07:40;;;;;;;;;34.33;30.33;;;;;;;;5060368;28;61904;-81
2022/12/12 00:10:05;;;;;;;;;36.00;25.33;;;;;;;;5060301;28;61766;-81
2022/12/12 00:12:31;;;;;;;;;40.67;33.33;;;;;;;;5061956;28;61985;-81
2022/12/12 00:14:56;;;;;;;;;25.67;20.33;;;;;;;;5060718;28;61742;-81
2022/12/12 00:17:21;;;;;;;;;35.00;29.67;;;;;;;;5060844;28;62183;-81
2022/12/12 00:19:46;;;;;;;;;35.00;28.67;;;;;;;;5061851;28;62089;-81
2022/12/12 00:22:12;;;;;;;;;31.67;23.33;;;;;;;;5059810;28;61839;-80
2022/12/12 00:24:37;;;;;;;;;32.33;24.33;;;;;;;;5060727;28;61764;-80
2022/12/12 00:27:02;;;;;;;;;46.00;32.67;;;;;;;;5060931;28;61756;-81
2022/12/12 00:29:28;;;;;;;;;56.33;34.67;;;;;;;;5061525;28;61780;-81
2022/12/12 00:31:53;;;;;;;;;45.67;27.67;;;;;;;;5061064;28;61945;-81
2022/12/12 00:34:18;;;;;;;;;33.33;25.33;;;;;;;;5061316;28;61757;-81
2022/12/12 00:36:43;;;;;;;;;49.33;30.33;;;;;;;;5059401;28;64296;-81
2022/12/12 00:39:09;;;;;;;;;34.33;26.00;;;;;;;;5061620;28;61813;-81
2022/12/12 00:41:35;;;;;;;;;41.00;25.67;;;;;;;;5059838;28;61968;-81
2022/12/12 00:44:00;;;;;;;;;32.67;27.67;;;;;;;;5060361;28;62115;-81
2022/12/12 00:46:25;;;;;;;;;34.00;29.00;;;;;;;;5060330;28;63106;-81
2022/12/12 00:48:55;;;;;;;;;31.67;26.33;;;;;;;;5059952;28;61825;-81
2022/12/12 00:51:21;;;;;;;;;38.33;29.33;;;;;;;;5059623;28;62000;-81
2022/12/12 00:53:47;;;;;;;;;33.33;29.00;;;;;;;;5061709;28;62018;-81
2022/12/12 00:56:17;;;;;;;;;36.33;23.00;;;;;;;;5059188;28;64884;-81
2022/12/12 00:58:42;;;;;;;;;32.33;25.33;;;;;;;;5061473;28;61984;-81
2022/12/12 01:01:10;;;;;;;;;38.33;18.33;;;;;;;;5061243;28;61674;-81
2022/12/12 01:03:36;;;;;;;;;22.00;19.67;;;;;;;;5059031;28;61966;-81
2022/12/12 01:06:01;;;;;;;;;29.33;21.33;;;;;;;;5059083;28;63873;-81
2022/12/12 01:08:27;;;;;;;;;27.00;21.00;;;;;;;;5059666;28;61712;-80
2022/12/12 01:10:52;;;;;;;;;33.00;24.33;;;;;;;;5061300;28;61861;-81
2022/12/12 01:13:17;;;;;;;;;42.33;28.67;;;;;;;;5061406;28;61943;-81
2022/12/12 01:15:43;;;;;;;;;33.33;21.33;;;;;;;;5060217;28;61938;-81
2022/12/12 01:18:08;;;;;;;;;37.50;27.75;;;;;;;;5061501;28;62010;-81
2022/12/12 01:20:33;;;;;;;;;32.33;19.67;;;;;;;;5063196;28;61807;-80
2022/12/12 01:22:59;;;;;;;;;27.00;20.00;;;;;;;;5065017;28;61825;-81
2022/12/12 01:25:24;;;;;;;;;28.50;18.75;;;;;;;;5063893;28;61728;-81
2022/12/12 01:27:50;;;;;;;;;28.75;25.50;;;;;;;;5065055;28;62147;-81
2022/12/12 01:30:17;;;;;;;;;24.67;18.67;;;;;;;;5064480;28;61900;-81
2022/12/12 01:32:43;;;;;;;;;28.33;19.33;;;;;;;;5062306;28;62266;-81
2022/12/12 01:35:08;;;;;;;;;30.67;18.00;;;;;;;;5062591;28;64860;-81
2022/12/12 01:37:34;;;;;;;;;33.67;19.33;;;;;;;;5062842;28;61926;-81
2022/12/12 01:40:00;;;;;;;;;34.00;18.33;;;;;;;;5064771;28;61911;-81
2022/12/12 01:42:25;;;;;;;;;28.00;16.00;;;;;;;;5064362;28;61721;-81
2022/12/12 01:44:52;;;;;;;;;26.00;20.67;;;;;;;;5063486;28;61925;-81
2022/12/12 01:47:19;;;;;;;;;26.33;20.00;;;;;;;;5063726;28;61979;-81
2022/12/12 01:50:03;;;;;;;;;26.00;21.67;;;;;;;;5064236;28;61818;-81
2022/12/12 01:52:31;;;;;;;;;27.67;20.33;;;;;;;;5064536;28;61966;-81
2022/12/12 01:54:58;;;;;;;;;40.67;22.33;;;;;;;;5061996;28;63743;-81
2022/12/12 01:57:33;;;;;;;;;37.33;26.00;;;;;;;;5064322;28;61797;-81
2022/12/12 02:00:01;;;;;;;;;30.33;22.33;;;;;;;;5064414;28;61736;-81
2022/12/12 02:02:27;;;;;;;;;24.75;17.00;;;;;;;;5063512;28;62114;-81
2022/12/12 02:04:52;;;;;;;;;29.25;20.00;;;;;;;;5061880;28;63885;-81
2022/12/12 02:07:18;;;;;;;;;27.75;22.75;;;;;;;;5064165;28;61777;-81
2022/12/12 02:09:43;;;;;;;;;21.75;18.00;;;;;;;;5063657;28;61880;-81
2022/12/12 02:12:13;;;;;;;;;32.25;22.75;;;;;;;;5063855;28;61811;-81
2022/12/12 02:14:41;;;;;;;;;26.50;19.75;;;;;;;;5061820;28;65044;-81
2022/12/12 02:17:06;;;;;;;;;17.00;10.50;;;;;;;;5061983;28;62084;-81
2022/12/12 02:19:54;;;;;;;;;29.33;20.67;;;;;;;;5062746;28;61800;-81
2022/12/12 02:22:40;;;;;;;;;26.00;20.00;;;;;;;;5063759;28;61999;-81
2022/12/12 02:25:24;;;;;;;;;25.75;19.75;;;;;;;;5060181;28;63749;-81
2022/12/12 02:28:09;;;;;;;;;31.25;20.50;;;;;;;;5063711;28;61839;-81
2022/12/12 02:30:54;;;;;;;;;22.50;20.00;;;;;;;;5036647;28;62148;-81
2022/12/12 02:33:26;;;;;;;;;22.75;18.50;;;;;;;;5061988;28;62327;-81
2022/12/12 02:36:10;;;;;;;;;32.50;21.25;;;;;;;;5061321;28;65144;-81
2022/12/12 02:38:35;;;;;;;;;26.00;20.00;;;;;;;;5063981;28;61844;-81
2022/12/12 02:41:00;;;;;;;;;36.25;20.00;;;;;;;;5061947;28;61967;-81
2022/12/12 02:43:35;;;;;;;;;29.33;21.67;;;;;;;;5063744;28;61881;-81
2022/12/12 02:46:04;;;;;;;;;28.33;19.33;;;;;;;;5062344;28;61777;-81
2022/12/12 02:48:47;;;;;;;;;23.25;16.25;;;;;;;;5063110;28;62667;-81
2022/12/12 02:51:14;;;;;;;;;30.33;16.00;;;;;;;;5062096;28;61867;-81
2022/12/12 02:53:40;;;;;;;;;26.75;19.00;;;;;;;;5063495;28;62167;-81
2022/12/12 02:56:07;;;;;;;;;36.00;18.75;;;;;;;;5060976;28;63093;-81
2022/12/12 02:58:35;;;;;;;;;23.50;21.00;;;;;;;;5063430;28;61651;-81
2022/12/12 03:01:13;;;;;;;;;21.25;18.25;;;;;;;;5061300;28;61786;-81
2022/12/12 03:09:45;;;;;;;;;30.67;21.00;;;;;;;;5063106;28;61736;-81
2022/12/12 03:12:19;;;;;;;;;23.33;19.67;;;;;;;;5062930;28;61871;-81
2022/12/12 03:14:44;;;;;;;;;27.33;18.33;;;;;;;;5063077;28;61669;-81
2022/12/12 03:17:16;;;;;;;;;28.33;20.67;;;;;;;;5060581;28;64879;-81
2022/12/12 03:19:47;;;;;;;;;18.75;14.25;;;;;;;;5062926;28;61874;-81
2022/12/12 03:22:48;;;;;;;;;31.00;15.25;;;;;;;;5061299;28;61777;-81
2022/12/12 03:25:13;;;;;;;;;24.25;18.00;;;;;;;;5000599;28;61876;-81
2022/12/12 03:27:43;;;;;;;;;25.00;15.33;;;;;;;;4999716;28;62640;-81
2022/12/12 03:30:12;;;;;;;;;25.25;19.75;;;;;;;;4999909;28;62063;-81
2022/12/12 03:32:52;;;;;;;;;25.50;13.50;;;;;;;;4983336;28;62556;-81
2022/12/12 03:35:25;;;;;;;;;21.50;18.25;;;;;;;;5000576;28;61859;-81
2022/12/12 03:37:55;;;;;;;;;31.25;18.00;;;;;;;;4999687;28;62145;-81
2022/12/12 03:40:25;;;;;;;;;33.50;18.75;;;;;;;;4983591;28;62141;-81
2022/12/12 03:42:56;;;;;;;;;25.75;14.25;;;;;;;;4999925;28;62079;-81
2022/12/12 03:45:24;;;;;;;;;20.50;17.75;;;;;;;;5000241;28;62211;-81
2022/12/12 03:47:57;;;;;;;;;18.00;15.33;;;;;;;;4999390;28;61890;-81
2022/12/12 03:50:29;;;;;;;;;24.00;21.75;;;;;;;;5000274;28;61862;-81
2022/12/12 03:53:00;;;;;;;;;26.67;18.67;;;;;;;;5000057;28;61887;-81
2022/12/12 03:55:25;;;;;;;;;18.50;16.25;;;;;;;;5000008;28;61864;-81
2022/12/12 03:57:55;;;;;;;;;19.75;17.25;;;;;;;;4999286;28;62729;-81
2022/12/12 04:00:20;;;;;;;;;22.00;16.25;;;;;;;;5059423;28;61766;-81
2022/12/12 04:02:50;;;;;;;;;24.25;20.50;;;;;;;;5061844;28;61785;-81
2022/12/12 04:05:34;;;;;;;;;21.50;17.00;;;;;;;;5060858;28;61717;-81
2022/12/12 04:08:00;;;;;;;;;21.33;16.67;;;;;;;;5061467;28;61737;-81
2022/12/12 04:13:14;;;;;;;;;20.75;17.75;;;;;;;;5061810;28;61645;-81
2022/12/12 04:15:58;;;;;;;;;27.00;22.00;;;;;;;;5062035;28;61927;-81
2022/12/12 04:18:40;;;;;;;;;20.67;18.33;;;;;;;;5059251;28;64495;-81
2022/12/12 04:24:01;;;;;;;;;29.33;19.67;;;;;;;;5062295;28;61866;-81
2022/12/12 04:26:39;;;;;;;;;32.00;23.00;;;;;;;;5061844;28;62509;-81
2022/12/12 04:29:10;;;;;;;;;26.00;21.50;;;;;;;;5061192;28;62080;-81
2022/12/12 04:31:39;;;;;;;;;31.00;19.00;;;;;;;;5060978;28;61809;-81
2022/12/12 04:34:09;;;;;;;;;18.25;15.00;;;;;;;;5060296;28;61820;-81
2022/12/12 04:36:34;;;;;;;;;30.75;17.50;;;;;;;;5061866;28;61810;-81
2022/12/12 04:39:01;;;;;;;;;29.50;19.75;;;;;;;;5059757;28;63879;-81
2022/12/12 04:41:27;;;;;;;;;31.00;20.25;;;;;;;;5061113;28;61984;-81
2022/12/12 04:43:54;;;;;;;;;21.33;15.67;;;;;;;;5062013;28;61801;-81
2022/12/12 04:46:21;;;;;;;;;24.25;14.75;;;;;;;;5059958;28;61783;-81
2022/12/12 04:48:50;;;;;;;;;26.00;16.00;;;;;;;;5059456;28;63736;-81
2022/12/12 04:51:18;;;;;;;;;31.67;20.33;;;;;;;;5061521;28;61802;-81
2022/12/12 04:53:46;;;;;;;;;20.67;17.33;;;;;;;;5062026;28;61877;-81
2022/12/12 04:56:13;;;;;;;;;20.67;17.00;;;;;;;;5064906;28;61953;-81
2022/12/12 04:58:39;;;;;;;;;22.00;17.00;;;;;;;;5064630;28;61747;-81
2022/12/12 05:01:15;;;;;;;;;19.33;19.33;;;;;;;;5064985;28;61892;-81
2022/12/12 05:03:48;;;;;;;;;27.00;19.75;;;;;;;;5064662;28;61828;-81
2022/12/12 05:06:16;;;;;;;;;30.67;21.67;;;;;;;;5064976;28;61580;-81
2022/12/12 05:08:52;;;;;;;;;20.25;15.00;;;;;;;;5064336;28;62894;-81
2022/12/12 05:11:20;;;;;;;;;24.00;18.67;;;;;;;;5062927;28;61821;-81
2022/12/12 05:13:46;;;;;;;;;18.00;13.67;;;;;;;;5065099;28;61946;-81
2022/12/12 05:16:32;;;;;;;;;21.75;17.75;;;;;;;;5063687;28;61776;-81
2022/12/12 05:18:57;;;;;;;;;19.75;18.00;;;;;;;;5062284;28;65005;-81
2022/12/12 05:21:23;;;;;;;;;24.00;17.25;;;;;;;;5063022;28;61749;-81
2022/12/12 05:23:48;;;;;;;;;20.50;14.25;;;;;;;;5065136;28;61721;-81
2022/12/12 05:26:27;;;;;;;;;17.25;15.50;;;;;;;;5064684;28;62094;-81
2022/12/12 05:28:52;;;;;;;;;21.75;18.25;;;;;;;;5062962;28;63889;-81
2022/12/12 05:31:18;;;;;;;;;19.00;17.50;;;;;;;;5063089;28;61845;-81
2022/12/12 05:33:43;;;;;;;;;21.00;18.00;;;;;;;;5064006;28;62118;-81
2022/12/12 05:36:09;;;;;;;;;27.33;21.67;;;;;;;;5064768;28;61833;-80
2022/12/12 05:38:35;;;;;;;;;33.33;20.00;;;;;;;;5063625;28;61921;-81
2022/12/12 05:41:00;;;;;;;;;27.00;21.00;;;;;;;;5063019;28;61825;-81
2022/12/12 05:43:25;;;;;;;;;28.25;22.00;;;;;;;;5062693;28;61944;-81
2022/12/12 05:45:57;;;;;;;;;25.25;14.25;;;;;;;;5064550;28;61845;-81
2022/12/12 05:48:24;;;;;;;;;29.75;21.50;;;;;;;;5063431;28;62631;-81
2022/12/12 05:50:51;;;;;;;;;31.33;21.67;;;;;;;;5064272;28;62323;-81
2022/12/12 05:53:16;;;;;;;;;23.50;16.00;;;;;;;;5064507;28;61826;-81
2022/12/12 05:55:41;;;;;;;;;24.00;19.67;;;;;;;;5047010;28;61708;-81
2022/12/12 05:58:07;;;;;;;;;16.25;10.75;;;;;;;;5043336;28;61670;-81
2022/12/12 06:00:32;;;;;;;;;36.33;15.67;;;;;;;;5043819;28;61683;-81
2022/12/12 06:02:57;;;;;;;;;26.25;22.50;;;;;;;;5043072;28;62173;-81
2022/12/12 06:05:22;;;;;;;;;23.25;19.50;;;;;;;;5042525;28;62105;-80
2022/12/12 06:07:48;;;;;;;;;28.75;21.00;;;;;;;;5042865;28;62765;-79
2022/12/12 06:10:13;;;;;;;;;22.25;20.00;;;;;;;;5042270;28;61770;-77
2022/12/12 06:12:38;;;;;;;;;27.00;17.25;;;;;;;;5043530;28;61808;-78
2022/12/12 06:15:04;;;;;;;;;24.00;18.50;;;;;;;;5041986;28;61961;-77
2022/12/12 06:17:29;;;;;;;;;25.75;17.50;;;;;;;;5042358;28;61880;-77
2022/12/12 06:19:54;;;;;;;;;25.50;18.00;;;;;;;;5042226;28;61818;-77
2022/12/12 06:22:20;;;;;;;;;17.50;16.25;;;;;;;;5043191;28;61963;-77
2022/12/12 06:24:45;;;;;;;;;27.00;20.00;;;;;;;;5043612;28;62146;-77
2022/12/12 06:27:10;;;;;;;;;18.75;16.50;;;;;;;;5041576;28;63735;-77
2022/12/12 06:29:36;;;;;;;;;37.00;28.25;;;;;;;;5056919;28;61900;-77
2022/12/12 06:32:01;;;;;;;;;23.00;17.00;;;;;;;;5061441;28;62244;-77
2022/12/12 06:34:26;;;;;;;;;28.00;16.75;;;;;;;;5063255;28;61741;-77
2022/12/12 06:36:52;;;;;;;;;39.75;23.00;;;;;;;;5062498;28;62565;-81
2022/12/12 06:39:18;;;;;;;;;27.75;22.75;;;;;;;;5066488;28;62027;-79
2022/12/12 06:41:43;;;;;;;;;30.00;17.67;;;;;;;;5064055;28;61786;-79
2022/12/12 06:44:08;;;;;;;;;28.25;16.00;;;;;;;;5063976;28;61867;-79
2022/12/12 06:46:33;;;;;;;;;30.67;23.00;;;;;;;;5062776;28;61808;-78
2022/12/12 06:48:59;;;;;;;;;40.67;20.67;;;;;;;;5056814;28;61916;-78
2022/12/12 06:51:27;;;;;;;;;22.00;17.25;;;;;;;;5050123;28;62261;-80
2022/12/12 06:53:52;;;;;;;;;24.67;18.00;;;;;;;;5052382;28;62104;-79
2022/12/12 06:56:18;;;;;;;;;37.00;25.00;;;;;;;;5051900;28;61798;-78
2022/12/12 06:58:44;;;;;;;;;24.67;21.00;;;;;;;;5051710;28;61890;-78
2022/12/12 07:01:10;;;;;;;;;30.00;24.00;;;;;;;;5043061;28;61758;-79
2022/12/12 07:03:35;;;;;;;;;21.33;17.00;;;;;;;;5048964;28;61817;-79
2022/12/12 07:06:01;;;;;;;;;33.33;21.33;;;;;;;;5062049;28;61740;-79
2022/12/12 07:08:27;;;;;;;;;33.67;20.33;;;;;;;;5063078;28;61819;-79
2022/12/12 07:10:52;;;;;;;;;30.00;25.00;;;;;;;;5062721;28;61916;-79
2022/12/12 07:13:18;;;;;;;;;34.33;23.33;;;;;;;;5063229;28;61798;-74
2022/12/12 07:15:44;;;;;;;;;24.75;21.50;;;;;;;;5047258;28;62120;-74
2022/12/12 07:18:09;;;;;;;;;24.67;17.33;;;;;;;;5041324;28;61901;-81
2022/12/12 07:20:37;;;;;;;;;26.67;23.00;;;;;;;;5058669;28;62254;-82
2022/12/12 07:23:02;;;;;;;;;27.50;19.00;;;;;;;;5063041;28;62038;-82
2022/12/12 07:25:28;;;;;;;;;28.00;15.33;;;;;;;;5062273;28;61833;-82
2022/12/12 07:27:53;;;;;;;;;31.33;23.00;;;;;;;;5056340;28;62124;-82
2022/12/12 07:30:18;;;;;;;;;25.67;18.00;;;;;;;;5042717;28;61979;-82
2022/12/12 07:32:43;;;;;;;;;36.67;23.00;;;;;;;;5055840;28;61879;-79
2022/12/12 07:35:09;;;;;;;;;32.67;20.67;;;;;;;;5060112;28;63649;-75
2022/12/12 07:37:34;;;;;;;;;25.00;20.00;;;;;;;;5062652;28;61879;-79
2022/12/12 07:39:59;;;;;;;;;26.67;25.33;;;;;;;;5044142;28;61798;-80
2022/12/12 07:42:25;;;;;;;;;30.33;22.67;;;;;;;;5042800;28;61872;-79
2022/12/12 07:44:50;;;;;;;;;33.33;24.67;;;;;;;;5042914;28;64972;-79
2022/12/12 07:47:15;;;;;;;;;32.33;24.00;;;;;;;;5041396;28;62085;-79
2022/12/12 07:49:41;;;;;;;;;31.33;23.00;;;;;;;;5040627;28;61791;-77
2022/12/12 07:52:06;;;;;;;;;24.67;20.00;;;;;;;;5041918;28;61958;-77
2022/12/12 07:54:31;;;;;;;;;27.33;19.33;;;;;;;;5051480;28;62784;-78
2022/12/12 07:56:57;;;;;;;;;19.33;13.67;;;;;;;;5051956;28;62190;-79
2022/12/12 07:59:22;;;;;;;;;24.67;23.00;;;;;;;;5053449;28;61847;-77
2022/12/12 08:01:48;;;;;;;;;25.33;19.00;;;;;;;;5061016;28;62076;-77
2022/12/12 08:04:13;;;;;;;;;16.33;12.33;;;;;;;;5059198;28;64523;-78
2022/12/12 08:06:38;;;;;;;;;30.67;22.33;;;;;;;;5061951;28;61923;-77
2022/12/12 08:09:04;;;;;;;;;36.00;26.33;;;;;;;;5061452;28;62134;-78
2022/12/12 08:11:29;;;;;;;;;34.67;23.00;;;;;;;;5051775;28;61971;-78
2022/12/12 08:13:54;;;;;;;;;33.33;26.00;;;;;;;;5055457;28;62787;-77
2022/12/12 08:16:21;;;;;;;;;34.33;24.67;;;;;;;;5061341;28;61832;-77
2022/12/12 08:18:46;;;;;;;;;36.67;22.67;;;;;;;;5061381;28;61858;-78
2022/12/12 08:21:13;;;;;;;;;34.67;24.33;;;;;;;;5050974;28;62288;-78
2022/12/12 08:23:38;;;;;;;;;48.33;27.33;;;;;;;;5041116;28;63003;-78
2022/12/12 08:26:08;;;;;;;;;29.33;23.00;;;;;;;;5041443;28;61954;-78
2022/12/12 08:28:34;;;;;;;;;39.00;27.33;;;;;;;;5059221;28;62192;-77
2022/12/12 08:31:00;;;;;;;;;28.33;24.33;;;;;;;;5061602;28;61926;-77
2022/12/12 08:33:25;;;;;;;;;24.67;22.33;;;;;;;;5060011;28;62475;-77
2022/12/12 08:35:50;;;;;;;;;39.00;28.67;;;;;;;;5061571;28;61877;-77
2022/12/12 08:38:16;;;;;;;;;32.33;24.00;;;;;;;;5059856;28;61821;-78
2022/12/12 08:40:41;;;;;;;;;45.50;25.75;;;;;;;;5061543;28;62544;-79
2022/12/12 08:43:07;;;;;;;;;31.33;24.67;;;;;;;;5051566;28;63542;-79
2022/12/12 08:45:33;;;;;;;;;26.00;21.33;;;;;;;;5041148;28;61770;-80
2022/12/12 08:47:58;;;;;;;;;25.33;24.33;;;;;;;;5050898;28;61820;-78
2022/12/12 08:50:23;;;;;;;;;41.33;27.00;;;;;;;;5061479;28;61738;-77
2022/12/12 08:52:48;;;;;;;;;38.00;29.67;;;;;;;;5059095;28;64153;-80
2022/12/12 08:55:14;;;;;;;;;44.33;32.00;;;;;;;;5047976;28;62107;-80
2022/12/12 08:57:39;;;;;;;;;42.50;25.75;;;;;;;;5041431;28;61997;-77
2022/12/12 09:00:05;;;;;;;;;37.75;27.25;;;;;;;;5049611;28;62405;-79
2022/12/12 09:02:31;;;;;;;;;38.00;26.00;;;;;;;;5049307;28;62107;-79
2022/12/12 09:04:56;;;;;;;;;44.67;30.67;;;;;;;;5051017;28;61854;-79
2022/12/12 09:07:21;;;;;;;;;40.00;32.67;;;;;;;;5056043;28;61911;-79
2022/12/12 09:09:46;;;;;;;;;40.33;27.67;;;;;;;;5058485;28;62082;-78
2022/12/12 09:12:12;;;;;;;;;37.00;23.67;;;;;;;;5057786;28;63729;-78
2022/12/12 09:14:37;;;;;;;;;62.33;32.33;;;;;;;;5052319;28;62403;-79
2022/12/12 09:17:03;;;;;;;;;61.67;35.33;;;;;;;;5050183;28;61878;-79
2022/12/12 09:19:28;;;;;;;;;36.00;28.67;;;;;;;;5047734;28;62248;-78
2022/12/12 09:21:53;;;;;;;;;39.33;29.00;;;;;;;;5048076;28;65258;-77
2022/12/12 09:24:18;;;;;;;;;41.00;30.67;;;;;;;;5047759;28;61814;-79
2022/12/12 09:26:44;;;;;;;;;20.67;20.00;;;;;;;;5049151;28;61905;-79
2022/12/12 09:29:09;;;;;;;;;41.25;30.75;;;;;;;;5050098;28;62025;-79
2022/12/12 09:31:34;;;;;;;;;43.00;28.00;;;;;;;;5039854;28;61884;-82
2022/12/12 09:34:00;;;;;;;;;35.33;26.33;;;;;;;;5040332;28;61845;-81
2022/12/12 09:36:25;;;;;;;;;34.00;28.67;;;;;;;;5040704;28;61927;-79
2022/12/12 09:38:50;;;;;;;;;35.33;29.67;;;;;;;;5041029;28;62108;-79
2022/12/12 09:41:20;;;;;;;;;30.00;28.00;;;;;;;;5043550;28;61847;-79
2022/12/12 09:43:46;;;;;;;;;40.00;31.25;;;;;;;;5050629;28;61782;-79
2022/12/12 09:46:20;;;;;;;;;33.33;28.00;;;;;;;;5054188;28;61792;-78
2022/12/12 09:48:46;;;;;;;;;43.33;30.33;;;;;;;;5054319;28;62193;-77
2022/12/12 09:51:11;;;;;;;;;31.00;18.00;;;;;;;;5052376;28;63822;-79
2022/12/12 09:53:42;;;;;;;;;38.00;30.00;;;;;;;;5053363;28;61956;-80
2022/12/12 09:56:20;;;;;;;;;36.67;28.00;;;;;;;;5068929;28;61756;-80
2022/12/12 09:58:48;;;;;;;;;30.75;30.75;;;;;;;;5051872;28;62089;-80
2022/12/12 10:01:32;;;;;;;;;34.75;25.50;;;;;;;;5048130;28;62264;-77
2022/12/12 10:04:20;;;;;;;;;47.50;28.75;;;;;;;;5043013;28;62001;-78
2022/12/12 10:06:50;;;;;;;;;48.67;32.67;;;;;;;;5031466;28;61826;-77
2022/12/12 10:09:24;;;;;;;;;31.75;25.75;;;;;;;;5043058;28;61712;-80
2022/12/12 10:11:53;;;;;;;;;34.00;25.00;;;;;;;;5059967;28;62848;-81
2022/12/12 10:14:35;;;;;;;;;42.25;31.00;;;;;;;;5063468;28;61985;-81
2022/12/12 10:17:02;;;;;;;;;31.50;25.00;;;;;;;;5063293;28;61985;-79
2022/12/12 10:19:29;;;;;;;;;31.00;28.00;;;;;;;;5062683;28;62145;-80
2022/12/12 10:21:57;;;;;;;;;27.50;19.00;;;;;;;;5062735;28;62372;-81
2022/12/12 10:24:28;;;;;;;;;30.00;26.50;;;;;;;;5063553;28;61871;-82
2022/12/12 10:26:54;;;;;;;;;35.50;22.75;;;;;;;;5061971;28;61916;-80
2022/12/12 10:29:20;;;;;;;;;30.75;24.50;;;;;;;;5063774;28;61900;-80
2022/12/12 10:31:49;;;;;;;;;41.25;27.75;;;;;;;;5061268;28;63942;-79
2022/12/12 10:34:14;;;;;;;;;42.50;23.25;;;;;;;;5063285;28;61930;-80
2022/12/12 10:36:39;;;;;;;;;36.50;23.00;;;;;;;;5062121;28;61927;-80
2022/12/12 10:39:21;;;;;;;;;38.00;30.00;;;;;;;;5044461;28;62060;-79
2022/12/12 10:41:56;;;;;;;;;33.00;23.75;;;;;;;;5047895;28;62014;-82
2022/12/12 10:44:21;;;;;;;;;38.25;28.25;;;;;;;;5063026;28;61843;-81
2022/12/12 10:47:00;;;;;;;;;35.00;26.50;;;;;;;;5061477;28;62176;-81
2022/12/12 10:49:25;;;;;;;;;46.00;27.33;;;;;;;;5061635;28;61806;-81
2022/12/12 10:51:51;;;;;;;;;37.00;29.00;;;;;;;;5061738;28;61825;-81
2022/12/12 10:54:18;;;;;;;;;35.75;30.00;;;;;;;;5056525;28;61978;-80
2022/12/12 10:57:08;;;;;;;;;50.00;29.75;;;;;;;;5061923;28;61967;-80
2022/12/12 10:59:38;;;;;;;;;34.00;29.75;;;;;;;;5041690;28;62044;-81
2022/12/12 11:02:03;;;;;;;;;43.50;32.25;;;;;;;;5041480;28;61937;-81
2022/12/12 11:04:30;;;;;;;;;33.75;28.50;;;;;;;;5041029;28;62399;-81
2022/12/12 11:06:56;;;;;;;;;40.00;31.75;;;;;;;;5042297;28;61975;-81
2022/12/12 11:09:27;;;;;;;;;26.25;22.75;;;;;;;;5042079;28;61852;-81
2022/12/12 11:11:58;;;;;;;;;28.75;24.50;;;;;;;;5042223;28;62815;-80
2022/12/12 11:14:32;;;;;;;;;24.75;22.50;;;;;;;;5042479;28;62142;-80
2022/12/12 11:16:58;;;;;;;;;33.50;26.75;;;;;;;;5058478;28;62172;-80
2022/12/12 11:19:24;;;;;;;;;32.50;26.75;;;;;;;;5055211;28;62036;-81
2022/12/12 11:21:50;;;;;;;;;37.50;29.25;;;;;;;;5050699;28;63082;-81
2022/12/12 11:24:21;;;;;;;;;34.75;26.75;;;;;;;;5048920;28;61967;-80
2022/12/12 11:26:51;;;;;;;;;34.75;24.25;;;;;;;;5056115;28;62520;-81
2022/12/12 11:29:35;;;;;;;;;38.50;27.25;;;;;;;;5062627;28;62129;-81
2022/12/12 11:32:01;;;;;;;;;31.75;27.50;;;;;;;;5060667;28;61930;-81
2022/12/12 11:34:28;;;;;;;;;29.25;21.00;;;;;;;;5057860;28;61750;-80
2022/12/12 11:36:54;;;;;;;;;31.50;27.00;;;;;;;;5049319;28;62017;-81
2022/12/12 11:39:28;;;;;;;;;43.50;28.00;;;;;;;;5042384;28;61862;-81
2022/12/12 11:41:56;;;;;;;;;23.50;22.25;;;;;;;;5041434;28;61809;-81
2022/12/12 11:44:25;;;;;;;;;36.75;29.50;;;;;;;;5041808;28;61859;-82
2022/12/12 11:46:50;;;;;;;;;37.50;24.75;;;;;;;;5042265;28;61793;-82
2022/12/12 11:49:17;;;;;;;;;38.25;29.00;;;;;;;;5057373;28;62072;-82
2022/12/12 11:51:43;;;;;;;;;37.75;27.25;;;;;;;;5060190;28;65280;-83
2022/12/12 11:54:12;;;;;;;;;38.75;31.50;;;;;;;;5056568;28;61829;-83
2022/12/12 11:56:40;;;;;;;;;41.75;30.25;;;;;;;;5041713;28;61905;-82
2022/12/12 11:59:29;;;;;;;;;37.25;29.75;;;;;;;;5040736;28;62091;-82
2022/12/12 12:02:00;;;;;;;;;39.75;34.50;;;;;;;;5040830;28;62861;-81
2022/12/12 12:04:25;;;;;;;;;34.00;27.00;;;;;;;;5050157;28;61763;-80
2022/12/12 12:06:54;;;;;;;;;37.00;32.50;;;;;;;;5060549;28;61920;-82
2022/12/12 12:09:19;;;;;;;;;34.25;26.25;;;;;;;;5062115;28;62014;-82
2022/12/12 12:11:44;;;;;;;;;42.00;31.75;;;;;;;;5061143;28;61969;-83
2022/12/12 12:14:28;;;;;;;;;34.25;27.75;;;;;;;;5062219;28;61946;-83
2022/12/12 12:16:59;;;;;;;;;34.00;28.00;;;;;;;;5060489;28;62475;-82
2022/12/12 12:19:25;;;;;;;;;51.25;28.00;;;;;;;;5060021;28;62003;-82
2022/12/12 12:22:09;;;;;;;;;32.75;28.25;;;;;;;;5039665;28;64227;-83
2022/12/12 12:24:53;;;;;;;;;39.75;30.75;;;;;;;;5039825;28;61892;-82
2022/12/12 12:27:25;;;;;;;;;35.00;23.50;;;;;;;;5040209;28;61941;-81
2022/12/12 12:30:09;;;;;;;;;45.75;30.00;;;;;;;;5041740;28;61946;-80
2022/12/12 12:32:41;;;;;;;;;44.75;33.25;;;;;;;;5040809;28;63904;-82
2022/12/12 12:35:06;;;;;;;;;33.50;27.50;;;;;;;;5046602;28;61897;-80
2022/12/12 12:37:43;;;;;;;;;40.50;30.00;;;;;;;;5062959;28;61814;-79
2022/12/12 12:40:27;;;;;;;;;52.00;30.00;;;;;;;;5055052;28;62168;-80
2022/12/12 12:43:07;;;;;;;;;28.50;24.00;;;;;;;;5050734;28;62577;-80
2022/12/12 12:45:51;;;;;;;;;33.00;28.75;;;;;;;;5050301;28;61798;-80
2022/12/12 12:48:24;;;;;;;;;42.25;28.00;;;;;;;;5050114;28;62053;-80
2022/12/12 12:50:56;;;;;;;;;44.50;32.50;;;;;;;;5053564;28;61952;-79
2022/12/12 12:53:21;;;;;;;;;41.50;30.00;;;;;;;;5043393;28;63934;-79
2022/12/12 12:55:49;;;;;;;;;41.75;32.75;;;;;;;;5056673;28;62127;-79
2022/12/12 12:58:23;;;;;;;;;36.50;30.75;;;;;;;;5061159;28;61883;-80
2022/12/12 13:00:57;;;;;;;;;38.00;27.75;;;;;;;;5061137;28;61932;-80
2022/12/12 13:03:26;;;;;;;;;35.50;26.50;;;;;;;;5058347;28;64017;-81
2022/12/12 13:05:55;;;;;;;;;35.50;26.00;;;;;;;;5060467;28;61979;-82
2022/12/12 13:08:35;;;;;;;;;41.75;30.75;;;;;;;;5055287;28;61989;-84
2022/12/12 13:11:13;;;;;;;;;40.50;29.00;;;;;;;;5040947;28;61758;-82
2022/12/12 13:13:43;;;;;;;;;30.25;22.75;;;;;;;;5040035;28;61905;-83
2022/12/12 13:16:25;;;;;;;;;35.00;27.00;;;;;;;;5044302;28;61887;-83
2022/12/12 13:19:00;;;;;;;;;32.25;25.75;;;;;;;;5042612;28;61851;-83
2022/12/12 13:21:28;;;;;;;;;36.75;27.25;;;;;;;;5046535;28;61908;-83
2022/12/12 13:24:06;;;;;;;;;36.25;27.50;;;;;;;;5052929;28;61812;-81
2022/12/12 13:26:49;;;;;;;;;47.75;30.50;;;;;;;;5053220;28;61805;-82
2022/12/12 13:29:29;;;;;;;;;21.25;18.75;;;;;;;;5051917;28;61971;-82
2022/12/12 13:32:00;;;;;;;;;27.50;24.00;;;;;;;;5048719;28;61745;-82
2022/12/12 13:34:27;;;;;;;;;39.75;29.50;;;;;;;;5058204;28;63972;-82
2022/12/12 13:36:53;;;;;;;;;44.25;25.50;;;;;;;;5052254;28;61927;-82
2022/12/12 13:39:23;;;;;;;;;31.50;26.75;;;;;;;;5051551;28;62114;-79
2022/12/12 13:41:57;;;;;;;;;29.75;27.50;;;;;;;;5052923;28;62332;-78
2022/12/12 13:44:38;;;;;;;;;33.25;26.25;;;;;;;;5050543;28;63978;-79
2022/12/12 13:47:12;;;;;;;;;40.00;28.50;;;;;;;;5041715;28;62362;-80
2022/12/12 13:49:37;;;;;;;;;32.50;27.00;;;;;;;;5042591;28;62150;-79
2022/12/12 13:52:21;;;;;;;;;38.50;31.00;;;;;;;;5051530;28;62386;-79
2022/12/12 13:54:47;;;;;;;;;42.00;27.00;;;;;;;;5054393;28;62282;-79
2022/12/12 13:57:14;;;;;;;;;39.75;33.00;;;;;;;;5042105;28;62166;-79
2022/12/12 13:59:51;;;;;;;;;35.00;28.25;;;;;;;;5048618;28;61933;-80
2022/12/12 14:02:29;;;;;;;;;43.00;30.50;;;;;;;;5052241;28;62185;-78
2022/12/12 14:05:24;;;;;;;;;39.25;32.50;;;;;;;;5048436;28;61995;-79
2022/12/12 14:07:51;;;;;;;;;31.50;23.75;;;;;;;;5033013;28;61764;-79
2022/12/12 14:10:25;;;;;;;;;52.50;38.00;;;;;;;;5043306;28;62086;-78
2022/12/12 14:12:50;;;;;;;;;28.75;25.25;;;;;;;;5043658;28;61929;-78
2022/12/12 14:15:31;;;;;;;;;35.50;26.50;;;;;;;;5042780;28;62021;-79
2022/12/12 14:18:01;;;;;;;;;33.00;26.50;;;;;;;;5043116;28;62113;-78
2022/12/12 14:20:29;;;;;;;;;36.00;28.50;;;;;;;;5043444;28;63069;-79
2022/12/12 14:22:54;;;;;;;;;28.25;21.50;;;;;;;;5043253;28;61960;-79
2022/12/12 14:25:27;;;;;;;;;36.50;24.00;;;;;;;;5049175;28;62827;-79
2022/12/12 14:27:53;;;;;;;;;36.75;29.50;;;;;;;;5063439;28;61851;-79
2022/12/12 14:30:32;;;;;;;;;41.75;31.25;;;;;;;;5055684;28;62382;-82
2022/12/12 14:33:03;;;;;;;;;31.50;23.25;;;;;;;;5050394;28;61753;-79
2022/12/12 14:35:44;;;;;;;;;26.75;20.25;;;;;;;;5047959;28;63638;-83
2022/12/12 14:38:15;;;;;;;;;30.50;23.25;;;;;;;;5051879;28;61837;-83